sensor_id;sensor_type;location;lat;lon;timestamp;temperature;humidity
10530;DHT22;5313;48.834;9.228;2023-02-22T00:00:38;5.10;99.90
10530;DHT22;5313;48.834;9.228;2023-02-22T00:03:12;5.20;99.90
10530;DHT22;5313;48.834;9.228;2023-02-22T00:05:40;4.40;99.90
10530;DHT22;5313;48.834;9.228;2023-02-22T00:08:10;5.00;99.90
10530;DHT22;5313;48.834;9.228;2023-02-22T00:10:36;5.20;99.90
10530;DHT22;5313;48.834;9.228;2023-02-22T00:13:07;5.10;99.90
10530;DHT22;5313;48.834;9.228;2023-02-22T00:15:33;5.20;99.90
10530;DHT22;5313;48.834;9.228;2023-02-22T00:18:00;5.00;99.90
10530;DHT22;5313;48.834;9.228;2023-02-22T00:20:25;5.00;99.90
10530;DHT22;5313;48.834;9.228;2023-02-22T00:22:51;5.30;99.90
10530;DHT22;5313;48.834;9.228;2023-02-22T00:25:19;5.50;99.90
10530;DHT22;5313;48.834;9.228;2023-02-22T00:27:45;5.40;99.90
10530;DHT22;5313;48.834;9.228;2023-02-22T00:30:17;7.20;99.90
10530;DHT22;5313;48.834;9.228;2023-02-22T00:32:47;9.30;99.90
10530;DHT22;5313;48.834;9.228;2023-02-22T00:35:15;5.30;99.90
10530;DHT22;5313;48.834;9.228;2023-02-22T00:37:40;5.40;99.90
10530;DHT22;5313;48.834;9.228;2023-02-22T00:40:08;5.20;99.90
10530;DHT22;5313;48.834;9.228;2023-02-22T00:42:34;5.30;99.90
10530;DHT22;5313;48.834;9.228;2023-02-22T00:44:59;5.00;99.90
10530;DHT22;5313;48.834;9.228;2023-02-22T00:47:25;5.00;99.90
10530;DHT22;5313;48.834;9.228;2023-02-22T00:49:51;5.10;99.90
10530;DHT22;5313;48.834;9.228;2023-02-22T00:52:17;5.00;99.90
10530;DHT22;5313;48.834;9.228;2023-02-22T00:54:42;4.90;99.90
10530;DHT22;5313;48.834;9.228;2023-02-22T00:57:08;5.00;99.90
10530;DHT22;5313;48.834;9.228;2023-02-22T00:59:34;4.90;99.90
10530;DHT22;5313;48.834;9.228;2023-02-22T01:01:59;4.80;99.90
10530;DHT22;5313;48.834;9.228;2023-02-22T01:04:25;5.00;99.90
10530;DHT22;5313;48.834;9.228;2023-02-22T01:06:50;4.00;99.90
10530;DHT22;5313;48.834;9.228;2023-02-22T01:09:16;4.50;99.90
10530;DHT22;5313;48.834;9.228;2023-02-22T01:11:41;4.60;99.90
10530;DHT22;5313;48.834;9.228;2023-02-22T01:14:07;4.40;99.90
10530;DHT22;5313;48.834;9.228;2023-02-22T01:16:34;4.40;99.90
10530;DHT22;5313;48.834;9.228;2023-02-22T01:19:00;4.30;99.90
10530;DHT22;5313;48.834;9.228;2023-02-22T01:21:26;4.20;99.90
10530;DHT22;5313;48.834;9.228;2023-02-22T01:23:51;4.00;99.90
10530;DHT22;5313;48.834;9.228;2023-02-22T01:26:17;4.60;99.90
10530;DHT22;5313;48.834;9.228;2023-02-22T01:28:42;4.40;99.90
10530;DHT22;5313;48.834;9.228;2023-02-22T01:31:09;4.60;99.90
10530;DHT22;5313;48.834;9.228;2023-02-22T01:33:34;6.60;99.90
10530;DHT22;5313;48.834;9.228;2023-02-22T01:36:00;4.60;99.90
10530;DHT22;5313;48.834;9.228;2023-02-22T01:38:25;4.90;99.90
10530;DHT22;5313;48.834;9.228;2023-02-22T01:40:51;4.50;99.90
10530;DHT22;5313;48.834;9.228;2023-02-22T01:43:26;4.90;99.90
10530;DHT22;5313;48.834;9.228;2023-02-22T01:46:03;4.90;99.90
10530;DHT22;5313;48.834;9.228;2023-02-22T01:48:35;4.90;99.90
10530;DHT22;5313;48.834;9.228;2023-02-22T01:51:46;6.80;99.90
10530;DHT22;5313;48.834;9.228;2023-02-22T01:54:34;4.30;99.90
10530;DHT22;5313;48.834;9.228;2023-02-22T01:57:12;4.90;99.90
10530;DHT22;5313;48.834;9.228;2023-02-22T01:59:41;4.70;99.90
10530;DHT22;5313;48.834;9.228;2023-02-22T02:02:08;4.50;99.90
10530;DHT22;5313;48.834;9.228;2023-02-22T02:04:33;4.30;99.90
10530;DHT22;5313;48.834;9.228;2023-02-22T02:07:03;4.50;99.90
10530;DHT22;5313;48.834;9.228;2023-02-22T02:12:15;1.40;99.90
10530;DHT22;5313;48.834;9.228;2023-02-22T02:14:42;4.40;99.90
10530;DHT22;5313;48.834;9.228;2023-02-22T02:17:10;4.50;99.90
10530;DHT22;5313;48.834;9.228;2023-02-22T02:22:53;4.50;99.90
10530;DHT22;5313;48.834;9.228;2023-02-22T02:34:05;4.60;99.90
10530;DHT22;5313;48.834;9.228;2023-02-22T02:39:52;4.70;99.90
10530;DHT22;5313;48.834;9.228;2023-02-22T02:42:24;4.70;99.90
10530;DHT22;5313;48.834;9.228;2023-02-22T02:45:22;4.80;99.90
10530;DHT22;5313;48.834;9.228;2023-02-22T02:47:54;4.80;99.90
10530;DHT22;5313;48.834;9.228;2023-02-22T02:50:46;4.80;99.90
10530;DHT22;5313;48.834;9.228;2023-02-22T02:53:14;4.80;99.90
10530;DHT22;5313;48.834;9.228;2023-02-22T02:55:41;4.80;99.90
10530;DHT22;5313;48.834;9.228;2023-02-22T02:58:07;4.80;99.90
10530;DHT22;5313;48.834;9.228;2023-02-22T03:00:37;4.80;99.90
10530;DHT22;5313;48.834;9.228;2023-02-22T03:06:00;4.60;99.90
10530;DHT22;5313;48.834;9.228;2023-02-22T03:11:20;4.60;99.90
10530;DHT22;5313;48.834;9.228;2023-02-22T03:16:45;4.60;99.90
10530;DHT22;5313;48.834;9.228;2023-02-22T03:27:19;4.40;99.90
10530;DHT22;5313;48.834;9.228;2023-02-22T03:29:47;4.30;99.90
10530;DHT22;5313;48.834;9.228;2023-02-22T03:32:20;4.30;99.90
10530;DHT22;5313;48.834;9.228;2023-02-22T03:35:00;4.40;99.90
10530;DHT22;5313;48.834;9.228;2023-02-22T03:37:30;4.50;99.90
10530;DHT22;5313;48.834;9.228;2023-02-22T03:39:59;4.50;99.90
10530;DHT22;5313;48.834;9.228;2023-02-22T03:42:29;4.60;99.90
10530;DHT22;5313;48.834;9.228;2023-02-22T03:44:58;4.70;99.90
10530;DHT22;5313;48.834;9.228;2023-02-22T03:47:35;4.60;99.90
10530;DHT22;5313;48.834;9.228;2023-02-22T03:50:10;4.70;99.90
10530;DHT22;5313;48.834;9.228;2023-02-22T03:52:40;4.60;99.90
10530;DHT22;5313;48.834;9.228;2023-02-22T03:55:07;4.60;99.90
10530;DHT22;5313;48.834;9.228;2023-02-22T03:57:37;4.50;99.90
10530;DHT22;5313;48.834;9.228;2023-02-22T04:00:06;4.60;99.90
10530;DHT22;5313;48.834;9.228;2023-02-22T04:02:34;4.50;99.90
10530;DHT22;5313;48.834;9.228;2023-02-22T04:04:59;4.60;99.90
10530;DHT22;5313;48.834;9.228;2023-02-22T04:07:25;4.50;99.90
10530;DHT22;5313;48.834;9.228;2023-02-22T04:09:50;4.50;99.90
10530;DHT22;5313;48.834;9.228;2023-02-22T04:12:16;4.40;99.90
10530;DHT22;5313;48.834;9.228;2023-02-22T04:14:42;4.40;99.90
10530;DHT22;5313;48.834;9.228;2023-02-22T04:17:07;4.50;99.90
10530;DHT22;5313;48.834;9.228;2023-02-22T04:19:33;4.40;99.90
10530;DHT22;5313;48.834;9.228;2023-02-22T04:21:59;4.30;99.90
10530;DHT22;5313;48.834;9.228;2023-02-22T04:24:24;4.30;99.90
10530;DHT22;5313;48.834;9.228;2023-02-22T04:26:50;4.20;99.90
10530;DHT22;5313;48.834;9.228;2023-02-22T04:29:15;4.20;99.90
10530;DHT22;5313;48.834;9.228;2023-02-22T04:31:41;4.10;99.90
10530;DHT22;5313;48.834;9.228;2023-02-22T04:34:06;4.10;99.90
10530;DHT22;5313;48.834;9.228;2023-02-22T04:36:32;4.10;99.90
10530;DHT22;5313;48.834;9.228;2023-02-22T04:38:58;4.20;99.90
10530;DHT22;5313;48.834;9.228;2023-02-22T04:41:24;4.20;99.90
10530;DHT22;5313;48.834;9.228;2023-02-22T04:43:49;4.20;99.90
10530;DHT22;5313;48.834;9.228;2023-02-22T04:46:16;4.20;99.90
10530;DHT22;5313;48.834;9.228;2023-02-22T04:48:41;4.20;99.90
10530;DHT22;5313;48.834;9.228;2023-02-22T04:51:07;4.20;99.90
10530;DHT22;5313;48.834;9.228;2023-02-22T04:53:33;4.20;99.90
10530;DHT22;5313;48.834;9.228;2023-02-22T04:55:58;4.20;99.90
10530;DHT22;5313;48.834;9.228;2023-02-22T04:58:24;4.10;99.90
10530;DHT22;5313;48.834;9.228;2023-02-22T05:00:49;4.00;99.90
10530;DHT22;5313;48.834;9.228;2023-02-22T05:03:15;3.90;99.90
10530;DHT22;5313;48.834;9.228;2023-02-22T05:05:41;4.00;99.90
10530;DHT22;5313;48.834;9.228;2023-02-22T05:08:06;3.90;99.90
10530;DHT22;5313;48.834;9.228;2023-02-22T05:10:32;3.90;99.90
10530;DHT22;5313;48.834;9.228;2023-02-22T05:12:57;3.90;99.90
10530;DHT22;5313;48.834;9.228;2023-02-22T05:15:23;4.00;99.90
10530;DHT22;5313;48.834;9.228;2023-02-22T05:17:50;4.00;99.90
10530;DHT22;5313;48.834;9.228;2023-02-22T05:20:38;4.00;99.90
10530;DHT22;5313;48.834;9.228;2023-02-22T05:23:04;4.00;99.90
10530;DHT22;5313;48.834;9.228;2023-02-22T05:25:30;4.10;99.90
10530;DHT22;5313;48.834;9.228;2023-02-22T05:28:02;4.10;99.90
10530;DHT22;5313;48.834;9.228;2023-02-22T05:30:30;4.00;99.90
10530;DHT22;5313;48.834;9.228;2023-02-22T05:32:56;4.20;99.90
10530;DHT22;5313;48.834;9.228;2023-02-22T05:35:24;4.20;99.90
10530;DHT22;5313;48.834;9.228;2023-02-22T05:37:50;4.20;99.90
10530;DHT22;5313;48.834;9.228;2023-02-22T05:40:21;4.30;99.90
10530;DHT22;5313;48.834;9.228;2023-02-22T05:42:48;4.20;99.90
10530;DHT22;5313;48.834;9.228;2023-02-22T05:45:17;4.10;99.90
10530;DHT22;5313;48.834;9.228;2023-02-22T05:47:43;4.10;99.90
10530;DHT22;5313;48.834;9.228;2023-02-22T05:50:09;4.00;99.90
10530;DHT22;5313;48.834;9.228;2023-02-22T05:52:34;4.10;99.90
10530;DHT22;5313;48.834;9.228;2023-02-22T05:55:00;4.00;99.90
10530;DHT22;5313;48.834;9.228;2023-02-22T05:57:25;4.10;99.90
10530;DHT22;5313;48.834;9.228;2023-02-22T05:59:51;4.10;99.90
10530;DHT22;5313;48.834;9.228;2023-02-22T06:02:16;4.20;99.90
10530;DHT22;5313;48.834;9.228;2023-02-22T06:04:45;4.20;99.90
10530;DHT22;5313;48.834;9.228;2023-02-22T06:07:12;4.20;99.90
10530;DHT22;5313;48.834;9.228;2023-02-22T06:09:38;4.20;99.90
10530;DHT22;5313;48.834;9.228;2023-02-22T06:12:04;4.20;99.90
10530;DHT22;5313;48.834;9.228;2023-02-22T06:14:29;4.10;99.90
10530;DHT22;5313;48.834;9.228;2023-02-22T06:16:56;4.10;99.90
10530;DHT22;5313;48.834;9.228;2023-02-22T06:19:21;4.10;99.90
10530;DHT22;5313;48.834;9.228;2023-02-22T06:21:49;4.10;99.90
10530;DHT22;5313;48.834;9.228;2023-02-22T06:24:15;4.10;99.90
10530;DHT22;5313;48.834;9.228;2023-02-22T06:26:41;4.00;99.90
10530;DHT22;5313;48.834;9.228;2023-02-22T06:29:06;4.00;99.90
10530;DHT22;5313;48.834;9.228;2023-02-22T06:31:33;4.00;99.90
10530;DHT22;5313;48.834;9.228;2023-02-22T06:33:58;4.10;99.90
10530;DHT22;5313;48.834;9.228;2023-02-22T06:36:23;4.10;99.90
10530;DHT22;5313;48.834;9.228;2023-02-22T06:38:49;5.50;99.90
10530;DHT22;5313;48.834;9.228;2023-02-22T06:41:14;4.00;99.90
10530;DHT22;5313;48.834;9.228;2023-02-22T06:43:40;4.10;99.90
10530;DHT22;5313;48.834;9.228;2023-02-22T06:46:09;4.10;99.90
10530;DHT22;5313;48.834;9.228;2023-02-22T06:48:36;4.00;99.90
10530;DHT22;5313;48.834;9.228;2023-02-22T06:51:03;4.00;99.90
10530;DHT22;5313;48.834;9.228;2023-02-22T06:53:28;4.00;99.90
10530;DHT22;5313;48.834;9.228;2023-02-22T06:55:54;4.00;99.90
10530;DHT22;5313;48.834;9.228;2023-02-22T06:58:19;4.10;99.90
10530;DHT22;5313;48.834;9.228;2023-02-22T07:00:45;4.10;99.90
10530;DHT22;5313;48.834;9.228;2023-02-22T07:03:10;4.20;99.90
10530;DHT22;5313;48.834;9.228;2023-02-22T07:05:36;4.30;99.90
10530;DHT22;5313;48.834;9.228;2023-02-22T07:08:05;4.30;99.90
10530;DHT22;5313;48.834;9.228;2023-02-22T07:10:32;4.30;99.90
10530;DHT22;5313;48.834;9.228;2023-02-22T07:12:59;4.40;99.90
10530;DHT22;5313;48.834;9.228;2023-02-22T07:15:26;4.40;99.90
10530;DHT22;5313;48.834;9.228;2023-02-22T07:17:52;4.40;99.90
10530;DHT22;5313;48.834;9.228;2023-02-22T07:20:19;4.60;99.90
10530;DHT22;5313;48.834;9.228;2023-02-22T07:22:45;4.70;99.90
10530;DHT22;5313;48.834;9.228;2023-02-22T07:25:11;4.70;99.90
10530;DHT22;5313;48.834;9.228;2023-02-22T07:27:38;4.80;99.90
10530;DHT22;5313;48.834;9.228;2023-02-22T07:30:07;5.00;99.90
10530;DHT22;5313;48.834;9.228;2023-02-22T07:32:32;5.10;99.90
10530;DHT22;5313;48.834;9.228;2023-02-22T07:34:58;5.20;99.90
10530;DHT22;5313;48.834;9.228;2023-02-22T07:37:24;5.30;99.90
10530;DHT22;5313;48.834;9.228;2023-02-22T07:39:49;5.40;99.90
10530;DHT22;5313;48.834;9.228;2023-02-22T07:42:15;5.50;99.90
10530;DHT22;5313;48.834;9.228;2023-02-22T07:44:40;5.60;99.90
10530;DHT22;5313;48.834;9.228;2023-02-22T07:47:06;5.60;99.90
10530;DHT22;5313;48.834;9.228;2023-02-22T07:49:33;5.60;99.90
10530;DHT22;5313;48.834;9.228;2023-02-22T07:51:58;5.60;99.90
10530;DHT22;5313;48.834;9.228;2023-02-22T07:54:24;5.60;99.90
10530;DHT22;5313;48.834;9.228;2023-02-22T07:56:49;5.70;99.90
10530;DHT22;5313;48.834;9.228;2023-02-22T07:59:15;5.90;99.90
10530;DHT22;5313;48.834;9.228;2023-02-22T08:01:40;6.00;99.90
10530;DHT22;5313;48.834;9.228;2023-02-22T08:04:06;6.20;99.90
10530;DHT22;5313;48.834;9.228;2023-02-22T08:06:32;6.30;99.90
10530;DHT22;5313;48.834;9.228;2023-02-22T08:08:57;6.20;99.90
10530;DHT22;5313;48.834;9.228;2023-02-22T08:11:23;6.20;99.90
10530;DHT22;5313;48.834;9.228;2023-02-22T08:13:49;6.20;99.90
10530;DHT22;5313;48.834;9.228;2023-02-22T08:16:15;6.30;99.90
10530;DHT22;5313;48.834;9.228;2023-02-22T08:18:40;6.40;99.90
10530;DHT22;5313;48.834;9.228;2023-02-22T08:21:06;6.50;99.90
10530;DHT22;5313;48.834;9.228;2023-02-22T08:23:31;6.70;99.90
10530;DHT22;5313;48.834;9.228;2023-02-22T08:26:07;6.70;99.90
10530;DHT22;5313;48.834;9.228;2023-02-22T08:28:33;6.80;99.90
10530;DHT22;5313;48.834;9.228;2023-02-22T08:30:59;6.90;99.90
10530;DHT22;5313;48.834;9.228;2023-02-22T08:33:24;6.70;99.90
10530;DHT22;5313;48.834;9.228;2023-02-22T08:35:50;6.80;99.90
10530;DHT22;5313;48.834;9.228;2023-02-22T08:40:47;7.70;99.90
10530;DHT22;5313;48.834;9.228;2023-02-22T08:43:13;7.90;99.90
10530;DHT22;5313;48.834;9.228;2023-02-22T08:45:39;8.00;99.90
10530;DHT22;5313;48.834;9.228;2023-02-22T08:48:05;8.00;99.90
10530;DHT22;5313;48.834;9.228;2023-02-22T08:50:31;8.10;99.90
10530;DHT22;5313;48.834;9.228;2023-02-22T08:52:59;8.30;99.90
10530;DHT22;5313;48.834;9.228;2023-02-22T08:55:28;8.50;99.90
10530;DHT22;5313;48.834;9.228;2023-02-22T08:57:54;8.50;99.90
10530;DHT22;5313;48.834;9.228;2023-02-22T09:00:21;8.60;99.90
10530;DHT22;5313;48.834;9.228;2023-02-22T09:02:52;8.60;99.90
10530;DHT22;5313;48.834;9.228;2023-02-22T09:05:18;8.80;99.90
10530;DHT22;5313;48.834;9.228;2023-02-22T09:07:44;9.10;99.90
10530;DHT22;5313;48.834;9.228;2023-02-22T09:10:36;9.20;99.90
10530;DHT22;5313;48.834;9.228;2023-02-22T09:13:02;9.60;99.90
10530;DHT22;5313;48.834;9.228;2023-02-22T09:15:29;9.70;99.90
10530;DHT22;5313;48.834;9.228;2023-02-22T09:17:54;9.60;99.90
10530;DHT22;5313;48.834;9.228;2023-02-22T09:20:21;9.60;99.90
10530;DHT22;5313;48.834;9.228;2023-02-22T09:22:48;9.70;99.90
10530;DHT22;5313;48.834;9.228;2023-02-22T09:25:14;9.50;99.90
10530;DHT22;5313;48.834;9.228;2023-02-22T09:27:40;9.90;99.90
10530;DHT22;5313;48.834;9.228;2023-02-22T09:30:10;9.40;99.90
10530;DHT22;5313;48.834;9.228;2023-02-22T09:32:39;9.70;99.90
10530;DHT22;5313;48.834;9.228;2023-02-22T09:35:05;10.10;99.90
10530;DHT22;5313;48.834;9.228;2023-02-22T09:37:33;10.50;99.90
10530;DHT22;5313;48.834;9.228;2023-02-22T09:39:58;10.50;99.90
10530;DHT22;5313;48.834;9.228;2023-02-22T09:42:27;10.50;99.90
10530;DHT22;5313;48.834;9.228;2023-02-22T09:45:21;10.70;99.90
10530;DHT22;5313;48.834;9.228;2023-02-22T09:47:53;11.00;99.90
10530;DHT22;5313;48.834;9.228;2023-02-22T09:50:40;11.10;99.90
10530;DHT22;5313;48.834;9.228;2023-02-22T09:53:27;11.40;99.90
10530;DHT22;5313;48.834;9.228;2023-02-22T09:56:04;11.70;99.90
10530;DHT22;5313;48.834;9.228;2023-02-22T09:58:35;11.70;99.90
10530;DHT22;5313;48.834;9.228;2023-02-22T10:01:29;11.70;99.90
10530;DHT22;5313;48.834;9.228;2023-02-22T10:04:10;11.70;99.90
10530;DHT22;5313;48.834;9.228;2023-02-22T10:06:38;11.80;99.90
10530;DHT22;5313;48.834;9.228;2023-02-22T10:09:08;11.70;99.90
10530;DHT22;5313;48.834;9.228;2023-02-22T10:11:59;11.90;99.90
10530;DHT22;5313;48.834;9.228;2023-02-22T10:14:53;12.20;99.90
10530;DHT22;5313;48.834;9.228;2023-02-22T10:17:41;12.10;99.90
10530;DHT22;5313;48.834;9.228;2023-02-22T10:20:46;12.50;99.90
10530;DHT22;5313;48.834;9.228;2023-02-22T10:23:08;12.30;99.90
10530;DHT22;5313;48.834;9.228;2023-02-22T10:25:37;12.50;99.90
10530;DHT22;5313;48.834;9.228;2023-02-22T10:30:56;12.30;99.90
10530;DHT22;5313;48.834;9.228;2023-02-22T10:33:26;12.40;99.90
10530;DHT22;5313;48.834;9.228;2023-02-22T10:35:54;12.50;99.90
10530;DHT22;5313;48.834;9.228;2023-02-22T10:38:31;12.50;99.90
10530;DHT22;5313;48.834;9.228;2023-02-22T10:43:38;13.50;99.90
10530;DHT22;5313;48.834;9.228;2023-02-22T10:46:07;12.40;99.90
10530;DHT22;5313;48.834;9.228;2023-02-22T10:48:36;12.40;99.90
10530;DHT22;5313;48.834;9.228;2023-02-22T10:51:04;12.30;99.90
10530;DHT22;5313;48.834;9.228;2023-02-22T10:53:31;12.50;99.90
10530;DHT22;5313;48.834;9.228;2023-02-22T10:56:12;12.50;99.90
10530;DHT22;5313;48.834;9.228;2023-02-22T10:58:55;12.40;99.90
10530;DHT22;5313;48.834;9.228;2023-02-22T11:04:10;12.70;99.90
10530;DHT22;5313;48.834;9.228;2023-02-22T11:06:37;13.10;99.90
10530;DHT22;5313;48.834;9.228;2023-02-22T11:09:15;13.00;99.90
10530;DHT22;5313;48.834;9.228;2023-02-22T11:11:44;12.90;99.90
10530;DHT22;5313;48.834;9.228;2023-02-22T11:14:11;12.90;99.90
10530;DHT22;5313;48.834;9.228;2023-02-22T11:16:46;13.00;99.90
10530;DHT22;5313;48.834;9.228;2023-02-22T11:19:23;12.90;99.90
10530;DHT22;5313;48.834;9.228;2023-02-22T11:21:52;13.20;99.90
10530;DHT22;5313;48.834;9.228;2023-02-22T11:24:21;13.60;99.90
10530;DHT22;5313;48.834;9.228;2023-02-22T11:26:52;14.00;99.90
10530;DHT22;5313;48.834;9.228;2023-02-22T11:29:24;13.90;99.90
10530;DHT22;5313;48.834;9.228;2023-02-22T11:31:50;14.00;99.90
10530;DHT22;5313;48.834;9.228;2023-02-22T11:34:32;14.20;99.90
10530;DHT22;5313;48.834;9.228;2023-02-22T11:39:47;14.50;99.90
10530;DHT22;5313;48.834;9.228;2023-02-22T11:42:24;14.40;99.90
10530;DHT22;5313;48.834;9.228;2023-02-22T11:45:09;14.30;99.90
10530;DHT22;5313;48.834;9.228;2023-02-22T11:47:45;14.30;99.90
10530;DHT22;5313;48.834;9.228;2023-02-22T12:13:04;14.30;99.90
10530;DHT22;5313;48.834;9.228;2023-02-22T12:15:50;14.80;99.90
10530;DHT22;5313;48.834;9.228;2023-02-22T12:18:36;15.20;99.90
10530;DHT22;5313;48.834;9.228;2023-02-22T12:21:16;15.50;99.90
10530;DHT22;5313;48.834;9.228;2023-02-22T12:23:54;15.10;99.90
10530;DHT22;5313;48.834;9.228;2023-02-22T12:26:33;15.40;99.90
10530;DHT22;5313;48.834;9.228;2023-02-22T12:29:13;15.60;99.90
10530;DHT22;5313;48.834;9.228;2023-02-22T12:31:54;15.70;99.90
10530;DHT22;5313;48.834;9.228;2023-02-22T12:34:41;16.00;99.90
10530;DHT22;5313;48.834;9.228;2023-02-22T12:37:23;15.50;99.90
10530;DHT22;5313;48.834;9.228;2023-02-22T12:40:15;15.30;99.90
10530;DHT22;5313;48.834;9.228;2023-02-22T12:45:35;15.40;99.90
10530;DHT22;5313;48.834;9.228;2023-02-22T12:48:43;15.50;99.90
10530;DHT22;5313;48.834;9.228;2023-02-22T12:51:18;16.00;99.90
10530;DHT22;5313;48.834;9.228;2023-02-22T12:56:33;16.10;99.90
10530;DHT22;5313;48.834;9.228;2023-02-22T12:59:29;15.90;99.90
10530;DHT22;5313;48.834;9.228;2023-02-22T13:02:11;15.70;99.90
10530;DHT22;5313;48.834;9.228;2023-02-22T13:04:40;15.80;99.90
10530;DHT22;5313;48.834;9.228;2023-02-22T13:07:14;15.30;99.90
10530;DHT22;5313;48.834;9.228;2023-02-22T13:12:54;15.40;99.90
10530;DHT22;5313;48.834;9.228;2023-02-22T13:18:24;16.00;99.90
10530;DHT22;5313;48.834;9.228;2023-02-22T13:26:23;15.50;99.90
10530;DHT22;5313;48.834;9.228;2023-02-22T13:45:56;16.60;99.90
10530;DHT22;5313;48.834;9.228;2023-02-22T13:53:59;16.10;99.90
10530;DHT22;5313;48.834;9.228;2023-02-22T13:56:27;16.10;99.90
10530;DHT22;5313;48.834;9.228;2023-02-22T13:58:57;15.70;99.90
10530;DHT22;5313;48.834;9.228;2023-02-22T14:01:38;15.60;99.90
10530;DHT22;5313;48.834;9.228;2023-02-22T14:04:32;15.50;99.90
10530;DHT22;5313;48.834;9.228;2023-02-22T14:07:48;16.20;99.90
10530;DHT22;5313;48.834;9.228;2023-02-22T14:09:55;16.30;99.90
10530;DHT22;5313;48.834;9.228;2023-02-22T14:17:42;15.30;99.90
10530;DHT22;5313;48.834;9.228;2023-02-22T14:20:21;15.00;99.90
10530;DHT22;5313;48.834;9.228;2023-02-22T14:22:55;14.80;99.90
10530;DHT22;5313;48.834;9.228;2023-02-22T14:25:37;14.80;99.90
10530;DHT22;5313;48.834;9.228;2023-02-22T14:28:06;14.90;99.90
10530;DHT22;5313;48.834;9.228;2023-02-22T14:30:34;14.60;99.90
10530;DHT22;5313;48.834;9.228;2023-02-22T14:33:01;14.40;99.90
10530;DHT22;5313;48.834;9.228;2023-02-22T14:35:35;14.50;99.90
10530;DHT22;5313;48.834;9.228;2023-02-22T14:38:03;14.50;99.90
10530;DHT22;5313;48.834;9.228;2023-02-22T14:40:33;14.50;99.90
10530;DHT22;5313;48.834;9.228;2023-02-22T14:43:34;14.40;99.90
10530;DHT22;5313;48.834;9.228;2023-02-22T14:46:01;14.40;99.90
10530;DHT22;5313;48.834;9.228;2023-02-22T14:48:35;14.40;99.90
10530;DHT22;5313;48.834;9.228;2023-02-22T14:53:46;14.30;99.90
10530;DHT22;5313;48.834;9.228;2023-02-22T14:56:14;14.30;99.90
10530;DHT22;5313;48.834;9.228;2023-02-22T14:58:43;14.30;99.90
10530;DHT22;5313;48.834;9.228;2023-02-22T15:01:31;14.20;99.90
10530;DHT22;5313;48.834;9.228;2023-02-22T15:04:22;14.10;99.90
10530;DHT22;5313;48.834;9.228;2023-02-22T15:06:51;14.00;99.90
10530;DHT22;5313;48.834;9.228;2023-02-22T15:09:23;13.90;99.90
10530;DHT22;5313;48.834;9.228;2023-02-22T15:12:02;13.90;99.90
10530;DHT22;5313;48.834;9.228;2023-02-22T15:14:35;13.90;99.90
10530;DHT22;5313;48.834;9.228;2023-02-22T15:17:06;13.90;99.90
10530;DHT22;5313;48.834;9.228;2023-02-22T15:19:36;14.00;99.90
10530;DHT22;5313;48.834;9.228;2023-02-22T15:22:03;13.90;99.90
10530;DHT22;5313;48.834;9.228;2023-02-22T15:24:34;13.70;99.90
10530;DHT22;5313;48.834;9.228;2023-02-22T15:27:06;13.80;99.90
10530;DHT22;5313;48.834;9.228;2023-02-22T15:29:36;13.70;99.90
10530;DHT22;5313;48.834;9.228;2023-02-22T15:32:17;13.70;99.90
10530;DHT22;5313;48.834;9.228;2023-02-22T15:34:43;13.60;99.90
10530;DHT22;5313;48.834;9.228;2023-02-22T15:37:19;13.50;99.90
10530;DHT22;5313;48.834;9.228;2023-02-22T15:39:49;13.60;99.90
10530;DHT22;5313;48.834;9.228;2023-02-22T15:42:27;13.60;99.90
10530;DHT22;5313;48.834;9.228;2023-02-22T15:44:54;13.50;99.90
10530;DHT22;5313;48.834;9.228;2023-02-22T15:47:25;13.50;99.90
10530;DHT22;5313;48.834;9.228;2023-02-22T15:50:18;13.50;99.90
10530;DHT22;5313;48.834;9.228;2023-02-22T15:55:46;13.50;99.90
10530;DHT22;5313;48.834;9.228;2023-02-22T16:00:41;13.40;99.90
10530;DHT22;5313;48.834;9.228;2023-02-22T16:03:10;13.40;99.90
10530;DHT22;5313;48.834;9.228;2023-02-22T16:05:43;13.40;99.90
10530;DHT22;5313;48.834;9.228;2023-02-22T16:08:34;13.30;99.90
10530;DHT22;5313;48.834;9.228;2023-02-22T16:11:04;13.30;99.90
10530;DHT22;5313;48.834;9.228;2023-02-22T16:13:41;13.20;99.90
10530;DHT22;5313;48.834;9.228;2023-02-22T16:18:41;13.30;99.90
10530;DHT22;5313;48.834;9.228;2023-02-22T16:21:13;13.30;99.90
10530;DHT22;5313;48.834;9.228;2023-02-22T16:23:51;13.20;99.90
10530;DHT22;5313;48.834;9.228;2023-02-22T16:26:28;13.10;99.90
10530;DHT22;5313;48.834;9.228;2023-02-22T16:29:06;13.10;99.90
10530;DHT22;5313;48.834;9.228;2023-02-22T16:31:37;13.10;99.90
10530;DHT22;5313;48.834;9.228;2023-02-22T16:34:06;13.10;99.90
10530;DHT22;5313;48.834;9.228;2023-02-22T16:36:45;13.10;99.90
10530;DHT22;5313;48.834;9.228;2023-02-22T16:39:19;13.20;99.90
10530;DHT22;5313;48.834;9.228;2023-02-22T16:41:47;13.20;99.90
10530;DHT22;5313;48.834;9.228;2023-02-22T16:44:12;13.20;99.90
10530;DHT22;5313;48.834;9.228;2023-02-22T16:46:39;13.10;99.90
10530;DHT22;5313;48.834;9.228;2023-02-22T16:49:07;13.00;99.90
10530;DHT22;5313;48.834;9.228;2023-02-22T16:51:43;13.00;99.90
10530;DHT22;5313;48.834;9.228;2023-02-22T16:54:12;12.90;99.90
10530;DHT22;5313;48.834;9.228;2023-02-22T16:56:38;12.70;99.90
10530;DHT22;5313;48.834;9.228;2023-02-22T16:59:08;12.60;99.90
10530;DHT22;5313;48.834;9.228;2023-02-22T17:01:35;12.60;99.90
10530;DHT22;5313;48.834;9.228;2023-02-22T17:04:00;12.50;99.90
10530;DHT22;5313;48.834;9.228;2023-02-22T17:06:26;12.50;99.90
10530;DHT22;5313;48.834;9.228;2023-02-22T17:08:53;12.40;99.90
10530;DHT22;5313;48.834;9.228;2023-02-22T17:11:19;12.40;99.90
10530;DHT22;5313;48.834;9.228;2023-02-22T17:13:45;12.40;99.90
10530;DHT22;5313;48.834;9.228;2023-02-22T17:16:16;12.40;99.90
10530;DHT22;5313;48.834;9.228;2023-02-22T17:18:41;12.40;99.90
10530;DHT22;5313;48.834;9.228;2023-02-22T17:21:09;12.30;99.90
10530;DHT22;5313;48.834;9.228;2023-02-22T17:23:35;12.30;99.90
10530;DHT22;5313;48.834;9.228;2023-02-22T17:26:02;12.30;99.90
10530;DHT22;5313;48.834;9.228;2023-02-22T17:28:28;12.30;99.90
10530;DHT22;5313;48.834;9.228;2023-02-22T17:30:56;12.20;99.90
10530;DHT22;5313;48.834;9.228;2023-02-22T17:33:27;12.30;99.90
10530;DHT22;5313;48.834;9.228;2023-02-22T17:35:55;12.20;99.90
10530;DHT22;5313;48.834;9.228;2023-02-22T17:38:22;12.00;99.90
10530;DHT22;5313;48.834;9.228;2023-02-22T17:40:48;12.00;99.90
10530;DHT22;5313;48.834;9.228;2023-02-22T17:43:16;12.00;99.90
10530;DHT22;5313;48.834;9.228;2023-02-22T17:45:43;12.00;99.90
10530;DHT22;5313;48.834;9.228;2023-02-22T17:48:10;12.00;99.90
10530;DHT22;5313;48.834;9.228;2023-02-22T17:50:38;12.00;99.90
10530;DHT22;5313;48.834;9.228;2023-02-22T17:53:04;12.10;99.90
10530;DHT22;5313;48.834;9.228;2023-02-22T17:55:30;12.10;99.90
10530;DHT22;5313;48.834;9.228;2023-02-22T17:57:56;12.00;99.90
10530;DHT22;5313;48.834;9.228;2023-02-22T18:00:23;12.00;99.90
10530;DHT22;5313;48.834;9.228;2023-02-22T18:02:59;12.00;99.90
10530;DHT22;5313;48.834;9.228;2023-02-22T18:05:25;11.90;99.90
10530;DHT22;5313;48.834;9.228;2023-02-22T18:07:51;11.90;99.90
10530;DHT22;5313;48.834;9.228;2023-02-22T18:10:17;11.90;99.90
10530;DHT22;5313;48.834;9.228;2023-02-22T18:12:46;11.80;99.90
10530;DHT22;5313;48.834;9.228;2023-02-22T18:15:15;11.70;99.90
10530;DHT22;5313;48.834;9.228;2023-02-22T18:17:43;11.70;99.90
10530;DHT22;5313;48.834;9.228;2023-02-22T18:20:09;11.50;99.90